Startpagina
METAR-TAF:

METAR-TAF

Vliegvelden :

Flughafen Weeze

Weeze, Duitsland

breedte: 51-36-09N, lengte: 006-08-32E, hoogte: 32 m

Actueel weer

Dit bericht is 17 minuten geleden gemaakt, om 17:50 UTC
Wind 3 kt uit variabele richting
Temperatuur 14°C
Vochtigheid 63%
Druk 1027 hPa
Zicht 10 km of meer
geen wolken onder 1500 m en geen cumulonimbus

METAR: EDLV 181750Z VRB03KT CAVOK 14/07 Q1027

Tijdstip: 20:07 (18:07 UTC)

Verwachting

Dit bericht is 1 uur en het 7 minuten geleden gemaakt, om 17:00 UTC
Verwachting geldig van 18 om 18 UTC tot 19 om 18 UTC
Wind 3 kt uit variabele richting
Zicht 10 km of meer
geen wolken onder 1500 m en geen cumulonimbus
Kans 30% :
Tijdelijke
van 19 om 00 UTC tot 19 om 07 UTC
Zicht: 3000 m
nevel
Tijdelijke
van 19 om 10 UTC tot 19 om 16 UTC
Wind 5 kt uit het noorden

TAF: EDLV 181700Z 1818/1918 VRB03KT CAVOK PROB30 TEMPO 1900/1907 3000 BR TEMPO 1910/1916 01005KT

Waarnemingen en weersverwachtingen van meer dan 4000 vliegvelden (METAR en TAF).

De beschikbare stations zijn de gele en rode punten op de kaart.

Ga met uw muis naar het station om de naam te zien.

Klik dan om waarnemingen en weersverwachtingen te zien.

kaart wijzigen: klik op de groene knoppen met een zwart kruis om in te zoomen, op de groene knop met een streepje om uit te zoomen of op de groene pijlen voor aangrenzende kaarten.


METAR-TAF: